sensor_id;sensor_type;location;lat;lon;timestamp;P1;durP1;ratioP1;P2;durP2;ratioP2
38023;SDS011;23834;48.080;11.682;2024-01-07T00:00:22;3.53;;;3.33;;
38023;SDS011;23834;48.080;11.682;2024-01-07T00:02:47;3.50;;;3.30;;
38023;SDS011;23834;48.080;11.682;2024-01-07T00:05:12;3.27;;;3.07;;
38023;SDS011;23834;48.080;11.682;2024-01-07T00:07:38;3.23;;;3.03;;
38023;SDS011;23834;48.080;11.682;2024-01-07T00:10:03;3.57;;;3.37;;
38023;SDS011;23834;48.080;11.682;2024-01-07T00:12:28;3.47;;;3.27;;
38023;SDS011;23834;48.080;11.682;2024-01-07T00:14:54;3.30;;;3.10;;
38023;SDS011;23834;48.080;11.682;2024-01-07T00:17:19;3.20;;;3.00;;
38023;SDS011;23834;48.080;11.682;2024-01-07T00:19:44;3.40;;;3.20;;
38023;SDS011;23834;48.080;11.682;2024-01-07T00:22:09;3.47;;;3.27;;
38023;SDS011;23834;48.080;11.682;2024-01-07T00:24:35;3.50;;;3.30;;
38023;SDS011;23834;48.080;11.682;2024-01-07T00:27:00;3.40;;;3.20;;
38023;SDS011;23834;48.080;11.682;2024-01-07T00:29:25;3.40;;;3.20;;
38023;SDS011;23834;48.080;11.682;2024-01-07T00:31:50;3.33;;;3.13;;
38023;SDS011;23834;48.080;11.682;2024-01-07T00:34:15;3.17;;;3.07;;
38023;SDS011;23834;48.080;11.682;2024-01-07T00:36:41;2.97;;;2.77;;
38023;SDS011;23834;48.080;11.682;2024-01-07T00:39:06;3.47;;;3.27;;
38023;SDS011;23834;48.080;11.682;2024-01-07T00:41:31;3.00;;;2.80;;
38023;SDS011;23834;48.080;11.682;2024-01-07T00:43:56;3.23;;;3.03;;
38023;SDS011;23834;48.080;11.682;2024-01-07T00:46:22;2.87;;;2.70;;
38023;SDS011;23834;48.080;11.682;2024-01-07T00:48:47;3.10;;;2.90;;
38023;SDS011;23834;48.080;11.682;2024-01-07T00:51:12;3.20;;;3.00;;
38023;SDS011;23834;48.080;11.682;2024-01-07T00:53:37;2.80;;;2.70;;
38023;SDS011;23834;48.080;11.682;2024-01-07T00:56:02;3.10;;;2.90;;
38023;SDS011;23834;48.080;11.682;2024-01-07T00:58:28;2.97;;;2.77;;
38023;SDS011;23834;48.080;11.682;2024-01-07T01:00:53;3.17;;;2.97;;
38023;SDS011;23834;48.080;11.682;2024-01-07T01:03:19;3.17;;;2.97;;
38023;SDS011;23834;48.080;11.682;2024-01-07T01:05:44;2.90;;;2.70;;
38023;SDS011;23834;48.080;11.682;2024-01-07T01:08:09;2.70;;;2.53;;
38023;SDS011;23834;48.080;11.682;2024-01-07T01:10:34;3.07;;;2.87;;
38023;SDS011;23834;48.080;11.682;2024-01-07T01:12:59;2.90;;;2.80;;
38023;SDS011;23834;48.080;11.682;2024-01-07T01:15:25;2.97;;;2.77;;
38023;SDS011;23834;48.080;11.682;2024-01-07T01:17:50;3.10;;;2.90;;
38023;SDS011;23834;48.080;11.682;2024-01-07T01:20:15;2.77;;;2.60;;
38023;SDS011;23834;48.080;11.682;2024-01-07T01:22:40;2.73;;;2.63;;
38023;SDS011;23834;48.080;11.682;2024-01-07T01:25:05;3.17;;;2.90;;
38023;SDS011;23834;48.080;11.682;2024-01-07T01:27:31;2.80;;;2.60;;
38023;SDS011;23834;48.080;11.682;2024-01-07T01:29:56;2.50;;;2.40;;
38023;SDS011;23834;48.080;11.682;2024-01-07T01:32:21;2.90;;;2.70;;
38023;SDS011;23834;48.080;11.682;2024-01-07T01:34:46;2.53;;;2.43;;
38023;SDS011;23834;48.080;11.682;2024-01-07T01:37:11;2.47;;;2.30;;
38023;SDS011;23834;48.080;11.682;2024-01-07T01:39:39;2.60;;;2.40;;
38023;SDS011;23834;48.080;11.682;2024-01-07T01:42:05;2.20;;;2.10;;
38023;SDS011;23834;48.080;11.682;2024-01-07T01:44:30;2.57;;;2.40;;
38023;SDS011;23834;48.080;11.682;2024-01-07T01:46:56;2.57;;;2.47;;
38023;SDS011;23834;48.080;11.682;2024-01-07T01:49:21;2.20;;;2.10;;
38023;SDS011;23834;48.080;11.682;2024-01-07T01:51:47;2.10;;;2.00;;
38023;SDS011;23834;48.080;11.682;2024-01-07T01:54:12;2.40;;;2.30;;
38023;SDS011;23834;48.080;11.682;2024-01-07T01:56:37;2.30;;;2.20;;
38023;SDS011;23834;48.080;11.682;2024-01-07T01:59:03;2.10;;;2.00;;
38023;SDS011;23834;48.080;11.682;2024-01-07T02:01:28;2.17;;;2.07;;
38023;SDS011;23834;48.080;11.682;2024-01-07T02:03:53;2.57;;;2.47;;
38023;SDS011;23834;48.080;11.682;2024-01-07T02:06:19;2.07;;;1.97;;
38023;SDS011;23834;48.080;11.682;2024-01-07T02:08:45;2.10;;;2.00;;
38023;SDS011;23834;48.080;11.682;2024-01-07T02:11:14;2.07;;;1.97;;
38023;SDS011;23834;48.080;11.682;2024-01-07T02:13:39;2.37;;;2.27;;
38023;SDS011;23834;48.080;11.682;2024-01-07T02:16:04;2.00;;;1.90;;
38023;SDS011;23834;48.080;11.682;2024-01-07T02:18:29;2.20;;;2.10;;
38023;SDS011;23834;48.080;11.682;2024-01-07T02:20:55;2.10;;;2.00;;
38023;SDS011;23834;48.080;11.682;2024-01-07T02:23:20;2.20;;;2.10;;
38023;SDS011;23834;48.080;11.682;2024-01-07T02:25:45;2.53;;;2.43;;
38023;SDS011;23834;48.080;11.682;2024-01-07T02:28:10;2.10;;;2.00;;
38023;SDS011;23834;48.080;11.682;2024-01-07T02:30:35;1.90;;;1.80;;
38023;SDS011;23834;48.080;11.682;2024-01-07T02:33:01;2.00;;;1.90;;
38023;SDS011;23834;48.080;11.682;2024-01-07T02:35:26;2.20;;;2.10;;
38023;SDS011;23834;48.080;11.682;2024-01-07T02:37:51;2.00;;;1.90;;
38023;SDS011;23834;48.080;11.682;2024-01-07T02:40:16;2.00;;;1.90;;
38023;SDS011;23834;48.080;11.682;2024-01-07T02:42:42;2.13;;;2.03;;
38023;SDS011;23834;48.080;11.682;2024-01-07T02:45:07;2.00;;;1.90;;
38023;SDS011;23834;48.080;11.682;2024-01-07T02:47:32;3.73;;;1.93;;
38023;SDS011;23834;48.080;11.682;2024-01-07T02:49:57;1.80;;;1.70;;
38023;SDS011;23834;48.080;11.682;2024-01-07T02:52:22;1.90;;;1.80;;
38023;SDS011;23834;48.080;11.682;2024-01-07T02:54:48;2.10;;;2.00;;
38023;SDS011;23834;48.080;11.682;2024-01-07T02:57:13;4.23;;;1.60;;
38023;SDS011;23834;48.080;11.682;2024-01-07T02:59:38;1.90;;;1.80;;
38023;SDS011;23834;48.080;11.682;2024-01-07T03:02:03;1.80;;;1.70;;
38023;SDS011;23834;48.080;11.682;2024-01-07T03:04:28;1.83;;;1.73;;
38023;SDS011;23834;48.080;11.682;2024-01-07T03:06:54;1.83;;;1.73;;
38023;SDS011;23834;48.080;11.682;2024-01-07T03:09:19;1.70;;;1.60;;
38023;SDS011;23834;48.080;11.682;2024-01-07T03:11:44;1.63;;;1.53;;
38023;SDS011;23834;48.080;11.682;2024-01-07T03:14:09;1.67;;;1.57;;
38023;SDS011;23834;48.080;11.682;2024-01-07T03:16:34;1.90;;;1.80;;
38023;SDS011;23834;48.080;11.682;2024-01-07T03:19:00;1.63;;;1.53;;
38023;SDS011;23834;48.080;11.682;2024-01-07T03:21:26;1.50;;;1.50;;
38023;SDS011;23834;48.080;11.682;2024-01-07T03:23:52;2.10;;;2.00;;
38023;SDS011;23834;48.080;11.682;2024-01-07T03:26:17;1.60;;;1.50;;
38023;SDS011;23834;48.080;11.682;2024-01-07T03:28:43;1.50;;;1.50;;
38023;SDS011;23834;48.080;11.682;2024-01-07T03:31:10;1.60;;;1.50;;
38023;SDS011;23834;48.080;11.682;2024-01-07T03:33:39;1.60;;;1.50;;
38023;SDS011;23834;48.080;11.682;2024-01-07T03:36:11;1.33;;;1.33;;
38023;SDS011;23834;48.080;11.682;2024-01-07T03:38:36;1.70;;;1.60;;
38023;SDS011;23834;48.080;11.682;2024-01-07T03:41:02;1.57;;;1.47;;
38023;SDS011;23834;48.080;11.682;2024-01-07T03:43:27;1.80;;;1.70;;
38023;SDS011;23834;48.080;11.682;2024-01-07T03:45:52;1.23;;;1.23;;
38023;SDS011;23834;48.080;11.682;2024-01-07T03:48:18;1.37;;;1.33;;
38023;SDS011;23834;48.080;11.682;2024-01-07T03:50:44;1.63;;;1.53;;
38023;SDS011;23834;48.080;11.682;2024-01-07T03:53:09;1.70;;;1.60;;
38023;SDS011;23834;48.080;11.682;2024-01-07T03:55:35;1.67;;;1.57;;
38023;SDS011;23834;48.080;11.682;2024-01-07T03:58:00;1.60;;;1.50;;
38023;SDS011;23834;48.080;11.682;2024-01-07T04:00:25;1.33;;;1.33;;
38023;SDS011;23834;48.080;11.682;2024-01-07T04:02:51;1.80;;;1.70;;
38023;SDS011;23834;48.080;11.682;2024-01-07T04:05:16;1.40;;;1.40;;
38023;SDS011;23834;48.080;11.682;2024-01-07T04:07:41;1.40;;;1.37;;
38023;SDS011;23834;48.080;11.682;2024-01-07T04:10:06;1.30;;;1.30;;
38023;SDS011;23834;48.080;11.682;2024-01-07T04:12:31;1.50;;;1.50;;
38023;SDS011;23834;48.080;11.682;2024-01-07T04:14:57;1.47;;;1.37;;
38023;SDS011;23834;48.080;11.682;2024-01-07T04:17:23;1.10;;;1.10;;
38023;SDS011;23834;48.080;11.682;2024-01-07T04:19:48;1.30;;;1.20;;
38023;SDS011;23834;48.080;11.682;2024-01-07T04:22:13;1.30;;;1.20;;
38023;SDS011;23834;48.080;11.682;2024-01-07T04:24:40;1.30;;;1.30;;
38023;SDS011;23834;48.080;11.682;2024-01-07T04:27:05;1.70;;;1.60;;
38023;SDS011;23834;48.080;11.682;2024-01-07T04:29:30;1.30;;;1.30;;
38023;SDS011;23834;48.080;11.682;2024-01-07T04:31:55;1.40;;;1.30;;
38023;SDS011;23834;48.080;11.682;2024-01-07T04:34:21;1.20;;;1.20;;
38023;SDS011;23834;48.080;11.682;2024-01-07T04:36:47;1.10;;;1.10;;
38023;SDS011;23834;48.080;11.682;2024-01-07T04:39:12;1.37;;;1.37;;
38023;SDS011;23834;48.080;11.682;2024-01-07T04:41:38;1.10;;;1.10;;
38023;SDS011;23834;48.080;11.682;2024-01-07T04:44:03;1.50;;;1.50;;
38023;SDS011;23834;48.080;11.682;2024-01-07T04:46:28;1.67;;;1.57;;
38023;SDS011;23834;48.080;11.682;2024-01-07T04:48:53;1.20;;;1.20;;
38023;SDS011;23834;48.080;11.682;2024-01-07T04:51:18;1.37;;;1.37;;
38023;SDS011;23834;48.080;11.682;2024-01-07T04:53:43;1.30;;;1.30;;
38023;SDS011;23834;48.080;11.682;2024-01-07T04:56:09;1.40;;;1.30;;
38023;SDS011;23834;48.080;11.682;2024-01-07T04:58:34;1.20;;;1.20;;
38023;SDS011;23834;48.080;11.682;2024-01-07T05:00:59;1.13;;;1.13;;
38023;SDS011;23834;48.080;11.682;2024-01-07T05:03:24;1.27;;;1.27;;
38023;SDS011;23834;48.080;11.682;2024-01-07T05:05:49;1.30;;;1.20;;
38023;SDS011;23834;48.080;11.682;2024-01-07T05:08:15;1.60;;;1.50;;
38023;SDS011;23834;48.080;11.682;2024-01-07T05:10:40;1.20;;;1.20;;
38023;SDS011;23834;48.080;11.682;2024-01-07T05:13:05;1.13;;;1.13;;
38023;SDS011;23834;48.080;11.682;2024-01-07T05:15:31;1.10;;;1.10;;
38023;SDS011;23834;48.080;11.682;2024-01-07T05:17:57;1.20;;;1.20;;
38023;SDS011;23834;48.080;11.682;2024-01-07T05:20:22;1.43;;;1.33;;
38023;SDS011;23834;48.080;11.682;2024-01-07T05:22:47;1.20;;;1.20;;
38023;SDS011;23834;48.080;11.682;2024-01-07T05:25:12;1.23;;;1.17;;
38023;SDS011;23834;48.080;11.682;2024-01-07T05:27:37;1.20;;;1.10;;
38023;SDS011;23834;48.080;11.682;2024-01-07T05:30:03;1.13;;;1.13;;
38023;SDS011;23834;48.080;11.682;2024-01-07T05:32:28;0.97;;;0.97;;
38023;SDS011;23834;48.080;11.682;2024-01-07T05:34:53;1.20;;;1.20;;
38023;SDS011;23834;48.080;11.682;2024-01-07T05:37:18;1.00;;;1.00;;
38023;SDS011;23834;48.080;11.682;2024-01-07T05:39:43;1.23;;;1.23;;
38023;SDS011;23834;48.080;11.682;2024-01-07T05:42:09;1.20;;;1.20;;
38023;SDS011;23834;48.080;11.682;2024-01-07T05:44:34;1.40;;;1.30;;
38023;SDS011;23834;48.080;11.682;2024-01-07T05:47:00;1.00;;;1.00;;
38023;SDS011;23834;48.080;11.682;2024-01-07T05:49:25;1.13;;;1.13;;
38023;SDS011;23834;48.080;11.682;2024-01-07T05:51:50;1.20;;;1.10;;
38023;SDS011;23834;48.080;11.682;2024-01-07T05:54:15;1.00;;;1.00;;
38023;SDS011;23834;48.080;11.682;2024-01-07T05:56:41;1.03;;;1.03;;
38023;SDS011;23834;48.080;11.682;2024-01-07T05:59:06;1.20;;;1.10;;
38023;SDS011;23834;48.080;11.682;2024-01-07T06:01:32;0.80;;;0.80;;
38023;SDS011;23834;48.080;11.682;2024-01-07T06:03:57;1.07;;;1.07;;
38023;SDS011;23834;48.080;11.682;2024-01-07T06:06:22;1.10;;;1.10;;
38023;SDS011;23834;48.080;11.682;2024-01-07T06:08:47;0.97;;;0.97;;
38023;SDS011;23834;48.080;11.682;2024-01-07T06:11:12;1.70;;;1.40;;
38023;SDS011;23834;48.080;11.682;2024-01-07T06:13:43;1.73;;;1.20;;
38023;SDS011;23834;48.080;11.682;2024-01-07T06:16:08;0.90;;;0.90;;
38023;SDS011;23834;48.080;11.682;2024-01-07T06:18:33;1.10;;;1.10;;
38023;SDS011;23834;48.080;11.682;2024-01-07T06:20:59;1.07;;;1.07;;
38023;SDS011;23834;48.080;11.682;2024-01-07T06:23:24;1.03;;;1.03;;
38023;SDS011;23834;48.080;11.682;2024-01-07T06:25:49;0.90;;;0.90;;
38023;SDS011;23834;48.080;11.682;2024-01-07T06:28:14;0.97;;;0.97;;
38023;SDS011;23834;48.080;11.682;2024-01-07T06:30:39;0.90;;;0.90;;
38023;SDS011;23834;48.080;11.682;2024-01-07T06:33:04;1.20;;;1.20;;
38023;SDS011;23834;48.080;11.682;2024-01-07T06:35:30;1.03;;;1.03;;
38023;SDS011;23834;48.080;11.682;2024-01-07T06:37:55;1.00;;;1.00;;
38023;SDS011;23834;48.080;11.682;2024-01-07T06:40:20;1.40;;;1.30;;
38023;SDS011;23834;48.080;11.682;2024-01-07T06:42:46;0.93;;;0.93;;
38023;SDS011;23834;48.080;11.682;2024-01-07T06:45:13;1.60;;;1.40;;
38023;SDS011;23834;48.080;11.682;2024-01-07T06:47:38;1.17;;;1.17;;
38023;SDS011;23834;48.080;11.682;2024-01-07T06:50:03;1.00;;;1.00;;
38023;SDS011;23834;48.080;11.682;2024-01-07T06:52:28;1.00;;;1.00;;
38023;SDS011;23834;48.080;11.682;2024-01-07T06:54:54;1.60;;;1.50;;
38023;SDS011;23834;48.080;11.682;2024-01-07T06:57:19;1.10;;;1.10;;
38023;SDS011;23834;48.080;11.682;2024-01-07T06:59:44;1.50;;;1.40;;
38023;SDS011;23834;48.080;11.682;2024-01-07T07:02:09;1.70;;;1.60;;
38023;SDS011;23834;48.080;11.682;2024-01-07T07:04:35;1.20;;;1.20;;
38023;SDS011;23834;48.080;11.682;2024-01-07T07:07:00;1.50;;;1.40;;
38023;SDS011;23834;48.080;11.682;2024-01-07T07:09:25;1.20;;;1.20;;
38023;SDS011;23834;48.080;11.682;2024-01-07T07:11:50;1.57;;;1.50;;
38023;SDS011;23834;48.080;11.682;2024-01-07T07:14:16;1.30;;;1.30;;
38023;SDS011;23834;48.080;11.682;2024-01-07T07:16:41;1.10;;;1.10;;
38023;SDS011;23834;48.080;11.682;2024-01-07T07:19:06;1.57;;;1.47;;
38023;SDS011;23834;48.080;11.682;2024-01-07T07:21:31;1.20;;;1.20;;
38023;SDS011;23834;48.080;11.682;2024-01-07T07:23:56;1.27;;;1.27;;
38023;SDS011;23834;48.080;11.682;2024-01-07T07:26:22;1.47;;;1.37;;
38023;SDS011;23834;48.080;11.682;2024-01-07T07:28:47;1.50;;;1.40;;
38023;SDS011;23834;48.080;11.682;2024-01-07T07:31:12;1.60;;;1.50;;
38023;SDS011;23834;48.080;11.682;2024-01-07T07:33:41;1.60;;;1.50;;
38023;SDS011;23834;48.080;11.682;2024-01-07T07:36:06;1.70;;;1.60;;
38023;SDS011;23834;48.080;11.682;2024-01-07T07:38:31;1.80;;;1.70;;
38023;SDS011;23834;48.080;11.682;2024-01-07T07:40:57;1.70;;;1.60;;
38023;SDS011;23834;48.080;11.682;2024-01-07T07:43:22;1.87;;;1.77;;
38023;SDS011;23834;48.080;11.682;2024-01-07T07:45:47;1.80;;;1.70;;
38023;SDS011;23834;48.080;11.682;2024-01-07T07:48:13;1.83;;;1.73;;
38023;SDS011;23834;48.080;11.682;2024-01-07T07:50:38;2.50;;;2.17;;
38023;SDS011;23834;48.080;11.682;2024-01-07T07:53:03;2.00;;;1.90;;
38023;SDS011;23834;48.080;11.682;2024-01-07T07:55:28;1.70;;;1.60;;
38023;SDS011;23834;48.080;11.682;2024-01-07T07:57:54;1.67;;;1.57;;
38023;SDS011;23834;48.080;11.682;2024-01-07T08:00:19;1.90;;;1.80;;
38023;SDS011;23834;48.080;11.682;2024-01-07T08:02:44;1.87;;;1.77;;
38023;SDS011;23834;48.080;11.682;2024-01-07T08:05:09;1.90;;;1.80;;
38023;SDS011;23834;48.080;11.682;2024-01-07T08:07:34;2.07;;;1.97;;
38023;SDS011;23834;48.080;11.682;2024-01-07T08:10:00;1.97;;;1.87;;
38023;SDS011;23834;48.080;11.682;2024-01-07T08:12:25;2.10;;;2.00;;
38023;SDS011;23834;48.080;11.682;2024-01-07T08:14:50;2.23;;;2.03;;
38023;SDS011;23834;48.080;11.682;2024-01-07T08:17:15;2.00;;;1.90;;
38023;SDS011;23834;48.080;11.682;2024-01-07T08:19:41;1.90;;;1.80;;
38023;SDS011;23834;48.080;11.682;2024-01-07T08:22:07;1.90;;;1.80;;
38023;SDS011;23834;48.080;11.682;2024-01-07T08:24:32;1.70;;;1.60;;
38023;SDS011;23834;48.080;11.682;2024-01-07T08:26:57;2.10;;;2.00;;
38023;SDS011;23834;48.080;11.682;2024-01-07T08:29:22;1.83;;;1.73;;
38023;SDS011;23834;48.080;11.682;2024-01-07T08:31:47;1.80;;;1.70;;
38023;SDS011;23834;48.080;11.682;2024-01-07T08:34:13;1.90;;;1.80;;
38023;SDS011;23834;48.080;11.682;2024-01-07T08:36:40;1.70;;;1.60;;
38023;SDS011;23834;48.080;11.682;2024-01-07T08:39:05;2.10;;;2.00;;
38023;SDS011;23834;48.080;11.682;2024-01-07T08:41:30;1.90;;;1.80;;
38023;SDS011;23834;48.080;11.682;2024-01-07T08:43:55;1.97;;;1.87;;
38023;SDS011;23834;48.080;11.682;2024-01-07T08:46:20;2.00;;;1.90;;
38023;SDS011;23834;48.080;11.682;2024-01-07T08:48:46;2.03;;;1.93;;
38023;SDS011;23834;48.080;11.682;2024-01-07T08:51:12;1.90;;;1.80;;
38023;SDS011;23834;48.080;11.682;2024-01-07T08:53:37;2.00;;;1.90;;
38023;SDS011;23834;48.080;11.682;2024-01-07T08:56:02;2.20;;;2.00;;
38023;SDS011;23834;48.080;11.682;2024-01-07T08:58:27;1.87;;;1.77;;
38023;SDS011;23834;48.080;11.682;2024-01-07T09:00:52;1.90;;;1.80;;
38023;SDS011;23834;48.080;11.682;2024-01-07T09:03:18;2.50;;;2.30;;
38023;SDS011;23834;48.080;11.682;2024-01-07T09:05:43;2.30;;;2.20;;
38023;SDS011;23834;48.080;11.682;2024-01-07T09:08:08;2.30;;;2.20;;
38023;SDS011;23834;48.080;11.682;2024-01-07T09:10:36;2.40;;;2.30;;
38023;SDS011;23834;48.080;11.682;2024-01-07T09:13:02;2.23;;;2.13;;
38023;SDS011;23834;48.080;11.682;2024-01-07T09:15:27;2.40;;;2.20;;
38023;SDS011;23834;48.080;11.682;2024-01-07T09:17:52;2.50;;;2.30;;
38023;SDS011;23834;48.080;11.682;2024-01-07T09:20:18;2.70;;;2.50;;
38023;SDS011;23834;48.080;11.682;2024-01-07T09:22:43;2.60;;;2.50;;
38023;SDS011;23834;48.080;11.682;2024-01-07T09:25:09;2.30;;;2.20;;
38023;SDS011;23834;48.080;11.682;2024-01-07T09:27:34;2.83;;;2.63;;
38023;SDS011;23834;48.080;11.682;2024-01-07T09:29:59;2.60;;;2.40;;
38023;SDS011;23834;48.080;11.682;2024-01-07T09:32:24;2.33;;;2.23;;
38023;SDS011;23834;48.080;11.682;2024-01-07T09:34:50;2.53;;;2.33;;
38023;SDS011;23834;48.080;11.682;2024-01-07T09:37:15;2.63;;;2.50;;
38023;SDS011;23834;48.080;11.682;2024-01-07T09:39:41;2.50;;;2.30;;
38023;SDS011;23834;48.080;11.682;2024-01-07T09:42:13;2.97;;;2.73;;
38023;SDS011;23834;48.080;11.682;2024-01-07T09:44:39;2.67;;;2.47;;
38023;SDS011;23834;48.080;11.682;2024-01-07T09:47:05;2.60;;;2.40;;
38023;SDS011;23834;48.080;11.682;2024-01-07T09:49:30;3.00;;;2.80;;
38023;SDS011;23834;48.080;11.682;2024-01-07T09:51:57;2.53;;;2.37;;
38023;SDS011;23834;48.080;11.682;2024-01-07T09:54:24;2.67;;;2.53;;
38023;SDS011;23834;48.080;11.682;2024-01-07T09:56:50;2.93;;;2.73;;
38023;SDS011;23834;48.080;11.682;2024-01-07T09:59:16;3.30;;;3.10;;
38023;SDS011;23834;48.080;11.682;2024-01-07T10:01:41;2.90;;;2.70;;
38023;SDS011;23834;48.080;11.682;2024-01-07T10:04:06;2.90;;;2.70;;
38023;SDS011;23834;48.080;11.682;2024-01-07T10:06:31;2.83;;;2.63;;
38023;SDS011;23834;48.080;11.682;2024-01-07T10:08:58;2.60;;;2.50;;
38023;SDS011;23834;48.080;11.682;2024-01-07T10:11:23;2.90;;;2.70;;
38023;SDS011;23834;48.080;11.682;2024-01-07T10:13:48;2.93;;;2.73;;
38023;SDS011;23834;48.080;11.682;2024-01-07T10:16:13;3.00;;;2.80;;
38023;SDS011;23834;48.080;11.682;2024-01-07T10:18:39;2.97;;;2.80;;
38023;SDS011;23834;48.080;11.682;2024-01-07T10:21:06;2.70;;;2.50;;
38023;SDS011;23834;48.080;11.682;2024-01-07T10:23:31;3.00;;;2.80;;
38023;SDS011;23834;48.080;11.682;2024-01-07T10:25:57;2.73;;;2.53;;
38023;SDS011;23834;48.080;11.682;2024-01-07T10:28:22;3.03;;;2.80;;
38023;SDS011;23834;48.080;11.682;2024-01-07T10:30:50;2.83;;;2.63;;
38023;SDS011;23834;48.080;11.682;2024-01-07T10:33:19;3.40;;;3.20;;
38023;SDS011;23834;48.080;11.682;2024-01-07T10:35:48;3.20;;;3.00;;
38023;SDS011;23834;48.080;11.682;2024-01-07T10:38:16;3.40;;;3.20;;
38023;SDS011;23834;48.080;11.682;2024-01-07T10:40:41;3.30;;;3.00;;
38023;SDS011;23834;48.080;11.682;2024-01-07T10:43:07;3.00;;;2.80;;
38023;SDS011;23834;48.080;11.682;2024-01-07T10:45:33;3.27;;;3.07;;
38023;SDS011;23834;48.080;11.682;2024-01-07T10:47:59;3.07;;;2.87;;
38023;SDS011;23834;48.080;11.682;2024-01-07T10:50:25;3.03;;;2.83;;
38023;SDS011;23834;48.080;11.682;2024-01-07T10:52:54;4.03;;;2.80;;
38023;SDS011;23834;48.080;11.682;2024-01-07T10:55:22;2.97;;;2.77;;
38023;SDS011;23834;48.080;11.682;2024-01-07T10:57:48;3.17;;;2.97;;
38023;SDS011;23834;48.080;11.682;2024-01-07T11:00:15;2.77;;;2.60;;
38023;SDS011;23834;48.080;11.682;2024-01-07T11:05:17;2.90;;;2.70;;
38023;SDS011;23834;48.080;11.682;2024-01-07T11:07:46;3.33;;;3.13;;
38023;SDS011;23834;48.080;11.682;2024-01-07T11:10:16;2.90;;;2.70;;
38023;SDS011;23834;48.080;11.682;2024-01-07T11:12:43;3.00;;;2.70;;
38023;SDS011;23834;48.080;11.682;2024-01-07T11:15:08;3.20;;;3.00;;
38023;SDS011;23834;48.080;11.682;2024-01-07T11:20:02;3.70;;;3.40;;
38023;SDS011;23834;48.080;11.682;2024-01-07T11:22:27;3.20;;;2.90;;
38023;SDS011;23834;48.080;11.682;2024-01-07T11:24:53;3.27;;;3.00;;
38023;SDS011;23834;48.080;11.682;2024-01-07T11:27:20;2.83;;;2.63;;
38023;SDS011;23834;48.080;11.682;2024-01-07T11:29:52;3.33;;;3.13;;
38023;SDS011;23834;48.080;11.682;2024-01-07T11:32:17;3.20;;;3.00;;
38023;SDS011;23834;48.080;11.682;2024-01-07T11:34:43;3.20;;;3.00;;
38023;SDS011;23834;48.080;11.682;2024-01-07T11:37:11;3.40;;;3.10;;
38023;SDS011;23834;48.080;11.682;2024-01-07T11:39:37;3.47;;;3.27;;
38023;SDS011;23834;48.080;11.682;2024-01-07T11:42:05;3.00;;;2.80;;
38023;SDS011;23834;48.080;11.682;2024-01-07T11:44:33;3.20;;;3.00;;
38023;SDS011;23834;48.080;11.682;2024-01-07T11:46:58;3.13;;;2.93;;
38023;SDS011;23834;48.080;11.682;2024-01-07T11:49:24;3.17;;;2.97;;
38023;SDS011;23834;48.080;11.682;2024-01-07T11:51:49;3.00;;;2.80;;
38023;SDS011;23834;48.080;11.682;2024-01-07T11:54:14;3.53;;;3.23;;
38023;SDS011;23834;48.080;11.682;2024-01-07T11:56:39;2.80;;;2.60;;
38023;SDS011;23834;48.080;11.682;2024-01-07T11:59:05;3.03;;;2.83;;
38023;SDS011;23834;48.080;11.682;2024-01-07T12:01:31;3.30;;;3.10;;
38023;SDS011;23834;48.080;11.682;2024-01-07T12:03:56;3.20;;;3.00;;
38023;SDS011;23834;48.080;11.682;2024-01-07T12:06:21;3.63;;;3.33;;
38023;SDS011;23834;48.080;11.682;2024-01-07T12:08:46;3.53;;;3.27;;
38023;SDS011;23834;48.080;11.682;2024-01-07T12:11:13;3.27;;;3.03;;
38023;SDS011;23834;48.080;11.682;2024-01-07T12:13:38;3.60;;;3.40;;
38023;SDS011;23834;48.080;11.682;2024-01-07T12:16:07;3.53;;;3.30;;
38023;SDS011;23834;48.080;11.682;2024-01-07T12:18:32;3.17;;;2.97;;
38023;SDS011;23834;48.080;11.682;2024-01-07T12:20:58;3.70;;;3.40;;
38023;SDS011;23834;48.080;11.682;2024-01-07T12:23:27;3.40;;;3.20;;
38023;SDS011;23834;48.080;11.682;2024-01-07T12:25:52;3.40;;;3.20;;
38023;SDS011;23834;48.080;11.682;2024-01-07T12:28:18;3.10;;;2.90;;
38023;SDS011;23834;48.080;11.682;2024-01-07T12:30:49;3.50;;;3.30;;
38023;SDS011;23834;48.080;11.682;2024-01-07T12:33:18;3.80;;;3.50;;
38023;SDS011;23834;48.080;11.682;2024-01-07T12:35:44;3.53;;;3.30;;
38023;SDS011;23834;48.080;11.682;2024-01-07T12:38:10;3.53;;;3.33;;
38023;SDS011;23834;48.080;11.682;2024-01-07T12:40:35;3.77;;;3.47;;
38023;SDS011;23834;48.080;11.682;2024-01-07T12:43:01;3.87;;;3.47;;
38023;SDS011;23834;48.080;11.682;2024-01-07T12:45:27;3.60;;;3.30;;
38023;SDS011;23834;48.080;11.682;2024-01-07T12:47:52;3.70;;;3.50;;
38023;SDS011;23834;48.080;11.682;2024-01-07T12:50:19;3.80;;;3.50;;
38023;SDS011;23834;48.080;11.682;2024-01-07T12:52:46;4.00;;;3.70;;
38023;SDS011;23834;48.080;11.682;2024-01-07T12:55:12;3.17;;;2.97;;
38023;SDS011;23834;48.080;11.682;2024-01-07T12:57:37;3.63;;;3.33;;
38023;SDS011;23834;48.080;11.682;2024-01-07T13:00:05;3.73;;;3.43;;
38023;SDS011;23834;48.080;11.682;2024-01-07T13:02:31;3.57;;;3.27;;
38023;SDS011;23834;48.080;11.682;2024-01-07T13:04:56;3.43;;;3.23;;
38023;SDS011;23834;48.080;11.682;2024-01-07T13:07:22;3.30;;;3.10;;
38023;SDS011;23834;48.080;11.682;2024-01-07T13:09:48;3.67;;;3.47;;
38023;SDS011;23834;48.080;11.682;2024-01-07T13:12:13;3.67;;;3.47;;
38023;SDS011;23834;48.080;11.682;2024-01-07T13:14:38;3.27;;;3.07;;
38023;SDS011;23834;48.080;11.682;2024-01-07T13:17:03;3.90;;;3.60;;
38023;SDS011;23834;48.080;11.682;2024-01-07T13:19:29;3.50;;;3.30;;
38023;SDS011;23834;48.080;11.682;2024-01-07T13:21:55;4.13;;;3.80;;
38023;SDS011;23834;48.080;11.682;2024-01-07T13:24:22;3.27;;;3.07;;
38023;SDS011;23834;48.080;11.682;2024-01-07T13:26:48;3.10;;;2.90;;
38023;SDS011;23834;48.080;11.682;2024-01-07T13:29:13;3.40;;;3.20;;
38023;SDS011;23834;48.080;11.682;2024-01-07T13:31:38;4.00;;;3.70;;
38023;SDS011;23834;48.080;11.682;2024-01-07T13:34:04;4.17;;;3.87;;
38023;SDS011;23834;48.080;11.682;2024-01-07T13:36:29;3.43;;;3.17;;
38023;SDS011;23834;48.080;11.682;2024-01-07T13:38:54;3.33;;;3.13;;
38023;SDS011;23834;48.080;11.682;2024-01-07T13:41:19;4.10;;;3.80;;
38023;SDS011;23834;48.080;11.682;2024-01-07T13:43:44;3.80;;;3.50;;
38023;SDS011;23834;48.080;11.682;2024-01-07T13:46:09;3.40;;;3.20;;
38023;SDS011;23834;48.080;11.682;2024-01-07T13:48:35;3.57;;;3.37;;
38023;SDS011;23834;48.080;11.682;2024-01-07T13:51:00;3.53;;;3.30;;
38023;SDS011;23834;48.080;11.682;2024-01-07T13:53:25;3.40;;;3.20;;
38023;SDS011;23834;48.080;11.682;2024-01-07T13:55:50;3.70;;;3.40;;
38023;SDS011;23834;48.080;11.682;2024-01-07T13:58:16;3.67;;;3.37;;
38023;SDS011;23834;48.080;11.682;2024-01-07T14:00:41;3.90;;;3.53;;
38023;SDS011;23834;48.080;11.682;2024-01-07T14:03:06;4.87;;;3.60;;
38023;SDS011;23834;48.080;11.682;2024-01-07T14:05:31;3.90;;;3.60;;
38023;SDS011;23834;48.080;11.682;2024-01-07T14:07:57;3.77;;;3.47;;
38023;SDS011;23834;48.080;11.682;2024-01-07T14:10:22;3.83;;;3.53;;
38023;SDS011;23834;48.080;11.682;2024-01-07T14:12:47;3.87;;;3.60;;
38023;SDS011;23834;48.080;11.682;2024-01-07T14:15:12;4.10;;;3.03;;
38023;SDS011;23834;48.080;11.682;2024-01-07T14:17:37;3.50;;;3.30;;
38023;SDS011;23834;48.080;11.682;2024-01-07T14:20:04;4.50;;;4.10;;
38023;SDS011;23834;48.080;11.682;2024-01-07T14:22:29;3.33;;;3.13;;
38023;SDS011;23834;48.080;11.682;2024-01-07T14:24:55;4.20;;;3.80;;
38023;SDS011;23834;48.080;11.682;2024-01-07T14:27:20;4.07;;;3.70;;